sensor_id;sensor_type;location;lat;lon;timestamp;temperature;humidity
32366;DHT22;18837;46.832;16.838;2023-04-01T00:03:07;12.60;90.50
32366;DHT22;18837;46.832;16.838;2023-04-01T00:05:33;12.60;90.10
32366;DHT22;18837;46.832;16.838;2023-04-01T00:07:59;12.60;90.10
32366;DHT22;18837;46.832;16.838;2023-04-01T00:10:26;12.60;90.20
32366;DHT22;18837;46.832;16.838;2023-04-01T00:12:51;12.60;90.50
32366;DHT22;18837;46.832;16.838;2023-04-01T00:15:17;12.60;90.30
32366;DHT22;18837;46.832;16.838;2023-04-01T00:17:49;12.60;90.10
32366;DHT22;18837;46.832;16.838;2023-04-01T00:20:15;12.60;90.20
32366;DHT22;18837;46.832;16.838;2023-04-01T00:22:41;12.60;90.30
32366;DHT22;18837;46.832;16.838;2023-04-01T00:25:07;12.60;90.40
32366;DHT22;18837;46.832;16.838;2023-04-01T00:27:33;12.60;90.40
32366;DHT22;18837;46.832;16.838;2023-04-01T00:29:58;12.50;90.20
32366;DHT22;18837;46.832;16.838;2023-04-01T00:36:06;12.50;90.60
32366;DHT22;18837;46.832;16.838;2023-04-01T00:38:31;12.50;90.70
32366;DHT22;18837;46.832;16.838;2023-04-01T00:40:57;12.50;90.30
32366;DHT22;18837;46.832;16.838;2023-04-01T00:43:24;12.50;90.30
32366;DHT22;18837;46.832;16.838;2023-04-01T00:45:49;12.50;90.30
32366;DHT22;18837;46.832;16.838;2023-04-01T00:48:24;12.50;90.30
32366;DHT22;18837;46.832;16.838;2023-04-01T00:51:11;12.50;90.20
32366;DHT22;18837;46.832;16.838;2023-04-01T00:53:44;12.50;90.20
32366;DHT22;18837;46.832;16.838;2023-04-01T00:56:37;12.50;90.30
32366;DHT22;18837;46.832;16.838;2023-04-01T00:59:16;12.50;90.20
32366;DHT22;18837;46.832;16.838;2023-04-01T01:01:43;12.50;90.30
32366;DHT22;18837;46.832;16.838;2023-04-01T01:04:25;12.50;90.30
32366;DHT22;18837;46.832;16.838;2023-04-01T01:13:31;12.40;90.90
32366;DHT22;18837;46.832;16.838;2023-04-01T01:16:35;12.40;90.80
32366;DHT22;18837;46.832;16.838;2023-04-01T01:28:15;12.40;90.40
32366;DHT22;18837;46.832;16.838;2023-04-01T01:30:54;12.40;90.20
32366;DHT22;18837;46.832;16.838;2023-04-01T01:36:20;12.40;91.00
32366;DHT22;18837;46.832;16.838;2023-04-01T01:38:48;12.40;90.40
32366;DHT22;18837;46.832;16.838;2023-04-01T01:41:46;12.40;90.30
32366;DHT22;18837;46.832;16.838;2023-04-01T01:44:30;12.40;91.00
32366;DHT22;18837;46.832;16.838;2023-04-01T01:47:09;12.40;90.30
32366;DHT22;18837;46.832;16.838;2023-04-01T01:49:36;12.40;90.30
32366;DHT22;18837;46.832;16.838;2023-04-01T01:52:03;12.40;90.40
32366;DHT22;18837;46.832;16.838;2023-04-01T01:54:29;12.30;90.40
32366;DHT22;18837;46.832;16.838;2023-04-01T01:57:06;12.40;90.50
32366;DHT22;18837;46.832;16.838;2023-04-01T01:59:34;12.40;91.00
32366;DHT22;18837;46.832;16.838;2023-04-01T02:02:16;12.40;90.30
32366;DHT22;18837;46.832;16.838;2023-04-01T02:04:44;12.30;90.30
32366;DHT22;18837;46.832;16.838;2023-04-01T02:07:16;12.30;90.30
32366;DHT22;18837;46.832;16.838;2023-04-01T02:09:43;12.30;90.40
32366;DHT22;18837;46.832;16.838;2023-04-01T02:12:12;12.30;90.40
32366;DHT22;18837;46.832;16.838;2023-04-01T02:15:06;12.30;90.30
32366;DHT22;18837;46.832;16.838;2023-04-01T02:21:08;12.30;91.20
32366;DHT22;18837;46.832;16.838;2023-04-01T02:23:36;12.30;90.30
32366;DHT22;18837;46.832;16.838;2023-04-01T02:26:06;12.30;90.50
32366;DHT22;18837;46.832;16.838;2023-04-01T02:28:33;12.30;90.50
32366;DHT22;18837;46.832;16.838;2023-04-01T02:31:01;12.30;90.40
32366;DHT22;18837;46.832;16.838;2023-04-01T02:33:28;12.30;90.40
32366;DHT22;18837;46.832;16.838;2023-04-01T02:36:14;12.20;90.40
32366;DHT22;18837;46.832;16.838;2023-04-01T02:38:42;12.20;90.30
32366;DHT22;18837;46.832;16.838;2023-04-01T02:41:09;12.20;90.30
32366;DHT22;18837;46.832;16.838;2023-04-01T02:43:35;12.20;90.50
32366;DHT22;18837;46.832;16.838;2023-04-01T02:46:00;12.20;90.50
32366;DHT22;18837;46.832;16.838;2023-04-01T02:48:27;12.20;90.50
32366;DHT22;18837;46.832;16.838;2023-04-01T02:51:21;12.20;90.50
32366;DHT22;18837;46.832;16.838;2023-04-01T02:54:23;12.20;91.30
32366;DHT22;18837;46.832;16.838;2023-04-01T02:56:58;12.20;91.40
32366;DHT22;18837;46.832;16.838;2023-04-01T02:59:24;12.20;90.50
32366;DHT22;18837;46.832;16.838;2023-04-01T03:01:50;12.20;90.60
32366;DHT22;18837;46.832;16.838;2023-04-01T03:04:15;12.20;90.60
32366;DHT22;18837;46.832;16.838;2023-04-01T03:06:41;12.10;90.50
32366;DHT22;18837;46.832;16.838;2023-04-01T03:09:07;12.10;90.60
32366;DHT22;18837;46.832;16.838;2023-04-01T03:11:45;12.10;90.70
32366;DHT22;18837;46.832;16.838;2023-04-01T03:14:10;12.10;90.50
32366;DHT22;18837;46.832;16.838;2023-04-01T03:16:36;12.10;90.40
32366;DHT22;18837;46.832;16.838;2023-04-01T03:19:02;12.10;90.70
32366;DHT22;18837;46.832;16.838;2023-04-01T03:21:27;12.10;90.50
32366;DHT22;18837;46.832;16.838;2023-04-01T03:23:53;12.10;90.80
32366;DHT22;18837;46.832;16.838;2023-04-01T03:29:53;12.10;92.00
32366;DHT22;18837;46.832;16.838;2023-04-01T03:32:19;12.10;90.60
32366;DHT22;18837;46.832;16.838;2023-04-01T03:34:45;12.10;90.60
32366;DHT22;18837;46.832;16.838;2023-04-01T03:37:11;12.10;90.70
32366;DHT22;18837;46.832;16.838;2023-04-01T03:39:36;12.10;90.80
32366;DHT22;18837;46.832;16.838;2023-04-01T03:42:02;12.10;90.60
32366;DHT22;18837;46.832;16.838;2023-04-01T03:44:34;12.10;90.70
32366;DHT22;18837;46.832;16.838;2023-04-01T03:47:00;12.00;90.80
32366;DHT22;18837;46.832;16.838;2023-04-01T03:49:26;12.00;90.90
32366;DHT22;18837;46.832;16.838;2023-04-01T03:51:52;12.00;90.80
32366;DHT22;18837;46.832;16.838;2023-04-01T03:54:18;12.00;90.70
32366;DHT22;18837;46.832;16.838;2023-04-01T03:56:45;12.00;90.70
32366;DHT22;18837;46.832;16.838;2023-04-01T03:59:30;12.00;90.20
32366;DHT22;18837;46.832;16.838;2023-04-01T04:05:22;12.00;91.50
32366;DHT22;18837;46.832;16.838;2023-04-01T04:07:49;12.00;91.30
32366;DHT22;18837;46.832;16.838;2023-04-01T04:10:15;12.00;90.50
32366;DHT22;18837;46.832;16.838;2023-04-01T04:12:41;12.00;90.80
32366;DHT22;18837;46.832;16.838;2023-04-01T04:15:08;12.00;90.80
32366;DHT22;18837;46.832;16.838;2023-04-01T04:17:33;12.00;91.10
32366;DHT22;18837;46.832;16.838;2023-04-01T04:20:09;12.00;90.80
32366;DHT22;18837;46.832;16.838;2023-04-01T04:22:34;11.90;91.00
32366;DHT22;18837;46.832;16.838;2023-04-01T04:25:00;11.90;90.90
32366;DHT22;18837;46.832;16.838;2023-04-01T04:27:26;11.90;90.90
32366;DHT22;18837;46.832;16.838;2023-04-01T04:29:52;11.90;90.80
32366;DHT22;18837;46.832;16.838;2023-04-01T04:32:17;11.90;91.00
32366;DHT22;18837;46.832;16.838;2023-04-01T04:35:11;11.90;90.80
32366;DHT22;18837;46.832;16.838;2023-04-01T04:38:00;11.90;91.80
32366;DHT22;18837;46.832;16.838;2023-04-01T04:40:26;11.90;91.80
32366;DHT22;18837;46.832;16.838;2023-04-01T04:42:52;11.90;90.90
32366;DHT22;18837;46.832;16.838;2023-04-01T04:45:17;11.90;91.00
32366;DHT22;18837;46.832;16.838;2023-04-01T04:47:43;11.80;90.90
32366;DHT22;18837;46.832;16.838;2023-04-01T04:50:09;11.80;90.90
32366;DHT22;18837;46.832;16.838;2023-04-01T04:52:35;11.80;91.10
32366;DHT22;18837;46.832;16.838;2023-04-01T04:55:16;11.80;91.00
32366;DHT22;18837;46.832;16.838;2023-04-01T04:57:42;11.80;91.00
32366;DHT22;18837;46.832;16.838;2023-04-01T05:00:08;11.80;91.10
32366;DHT22;18837;46.832;16.838;2023-04-01T05:02:36;11.80;91.10
32366;DHT22;18837;46.832;16.838;2023-04-01T05:05:02;11.80;90.90
32366;DHT22;18837;46.832;16.838;2023-04-01T05:07:27;11.80;91.10
32366;DHT22;18837;46.832;16.838;2023-04-01T05:10:27;11.80;91.10
32366;DHT22;18837;46.832;16.838;2023-04-01T05:13:05;11.80;91.70
32366;DHT22;18837;46.832;16.838;2023-04-01T05:15:32;11.80;90.80
32366;DHT22;18837;46.832;16.838;2023-04-01T05:17:58;11.80;91.40
32366;DHT22;18837;46.832;16.838;2023-04-01T05:20:23;11.80;90.80
32366;DHT22;18837;46.832;16.838;2023-04-01T05:22:49;11.70;90.90
32366;DHT22;18837;46.832;16.838;2023-04-01T05:25:15;11.70;90.90
32366;DHT22;18837;46.832;16.838;2023-04-01T05:27:59;11.70;91.10
32366;DHT22;18837;46.832;16.838;2023-04-01T05:30:25;11.70;90.90
32366;DHT22;18837;46.832;16.838;2023-04-01T05:32:50;11.70;91.10
32366;DHT22;18837;46.832;16.838;2023-04-01T05:35:16;11.70;91.10
32366;DHT22;18837;46.832;16.838;2023-04-01T05:37:42;11.70;91.10
32366;DHT22;18837;46.832;16.838;2023-04-01T05:40:08;11.70;91.10
32366;DHT22;18837;46.832;16.838;2023-04-01T05:42:58;11.70;91.50
32366;DHT22;18837;46.832;16.838;2023-04-01T05:45:24;11.70;91.80
32366;DHT22;18837;46.832;16.838;2023-04-01T05:48:10;11.70;91.20
32366;DHT22;18837;46.832;16.838;2023-04-01T05:50:36;11.70;92.20
32366;DHT22;18837;46.832;16.838;2023-04-01T05:53:02;11.60;91.00
32366;DHT22;18837;46.832;16.838;2023-04-01T05:55:27;11.60;91.00
32366;DHT22;18837;46.832;16.838;2023-04-01T05:57:53;11.60;91.00
32366;DHT22;18837;46.832;16.838;2023-04-01T06:00:19;11.60;91.00
32366;DHT22;18837;46.832;16.838;2023-04-01T06:02:51;11.70;91.30
32366;DHT22;18837;46.832;16.838;2023-04-01T06:05:27;11.60;91.10
32366;DHT22;18837;46.832;16.838;2023-04-01T06:07:59;11.60;92.10
32366;DHT22;18837;46.832;16.838;2023-04-01T06:16:17;11.70;92.10
32366;DHT22;18837;46.832;16.838;2023-04-01T06:22:45;11.70;92.10
32366;DHT22;18837;46.832;16.838;2023-04-01T06:46:05;11.80;91.90
32366;DHT22;18837;46.832;16.838;2023-04-01T06:49:00;11.80;91.90
32366;DHT22;18837;46.832;16.838;2023-04-01T06:54:55;11.90;92.00
32366;DHT22;18837;46.832;16.838;2023-04-01T06:57:42;11.90;91.40
32366;DHT22;18837;46.832;16.838;2023-04-01T07:00:30;11.90;90.50
32366;DHT22;18837;46.832;16.838;2023-04-01T07:03:16;11.90;91.60
32366;DHT22;18837;46.832;16.838;2023-04-01T07:05:45;11.80;91.40
32366;DHT22;18837;46.832;16.838;2023-04-01T07:08:33;11.90;90.80
32366;DHT22;18837;46.832;16.838;2023-04-01T07:11:24;11.90;90.50
32366;DHT22;18837;46.832;16.838;2023-04-01T07:13:55;11.90;91.50
32366;DHT22;18837;46.832;16.838;2023-04-01T07:16:26;11.90;90.60
32366;DHT22;18837;46.832;16.838;2023-04-01T07:19:01;11.90;90.70
32366;DHT22;18837;46.832;16.838;2023-04-01T07:21:41;11.90;90.60
32366;DHT22;18837;46.832;16.838;2023-04-01T07:24:34;11.90;91.30
32366;DHT22;18837;46.832;16.838;2023-04-01T07:27:23;11.90;91.60
32366;DHT22;18837;46.832;16.838;2023-04-01T07:30:14;11.90;91.70
32366;DHT22;18837;46.832;16.838;2023-04-01T07:36:04;12.00;90.70
32366;DHT22;18837;46.832;16.838;2023-04-01T07:47:10;12.10;91.60
32366;DHT22;18837;46.832;16.838;2023-04-01T07:50:11;12.10;91.30
32366;DHT22;18837;46.832;16.838;2023-04-01T07:55:20;12.20;91.70
32366;DHT22;18837;46.832;16.838;2023-04-01T07:58:10;12.20;90.80
32366;DHT22;18837;46.832;16.838;2023-04-01T08:07:17;12.30;91.90
32366;DHT22;18837;46.832;16.838;2023-04-01T08:09:55;12.40;91.10
32366;DHT22;18837;46.832;16.838;2023-04-01T08:12:43;12.40;92.20
32366;DHT22;18837;46.832;16.838;2023-04-01T08:15:27;12.50;92.10
32366;DHT22;18837;46.832;16.838;2023-04-01T08:21:03;12.50;92.10
32366;DHT22;18837;46.832;16.838;2023-04-01T08:23:33;12.50;92.30
32366;DHT22;18837;46.832;16.838;2023-04-01T08:26:35;12.60;91.40
32366;DHT22;18837;46.832;16.838;2023-04-01T08:29:26;12.60;92.40
32366;DHT22;18837;46.832;16.838;2023-04-01T08:32:03;12.60;92.10
32366;DHT22;18837;46.832;16.838;2023-04-01T08:34:37;12.70;91.50
32366;DHT22;18837;46.832;16.838;2023-04-01T08:37:30;12.70;91.50
32366;DHT22;18837;46.832;16.838;2023-04-01T08:43:45;12.80;92.30
32366;DHT22;18837;46.832;16.838;2023-04-01T08:49:04;12.90;92.10
32366;DHT22;18837;46.832;16.838;2023-04-01T08:51:57;12.90;91.60
32366;DHT22;18837;46.832;16.838;2023-04-01T08:54:57;12.90;92.20
32366;DHT22;18837;46.832;16.838;2023-04-01T09:00:28;13.00;92.40
32366;DHT22;18837;46.832;16.838;2023-04-01T09:03:29;13.00;92.20
32366;DHT22;18837;46.832;16.838;2023-04-01T09:37:46;13.70;93.80
32366;DHT22;18837;46.832;16.838;2023-04-01T09:51:22;14.00;90.70
32366;DHT22;18837;46.832;16.838;2023-04-01T10:23:02;14.10;90.10
32366;DHT22;18837;46.832;16.838;2023-04-01T10:25:41;14.10;88.30
32366;DHT22;18837;46.832;16.838;2023-04-01T10:28:36;14.10;88.80
32366;DHT22;18837;46.832;16.838;2023-04-01T10:31:35;14.10;88.50
32366;DHT22;18837;46.832;16.838;2023-04-01T10:48:43;14.50;90.70
32366;DHT22;18837;46.832;16.838;2023-04-01T10:51:37;14.50;92.80
32366;DHT22;18837;46.832;16.838;2023-04-01T11:10:25;14.80;88.30
32366;DHT22;18837;46.832;16.838;2023-04-01T11:23:58;14.60;87.50
32366;DHT22;18837;46.832;16.838;2023-04-01T11:26:41;14.60;87.90
32366;DHT22;18837;46.832;16.838;2023-04-01T11:55:22;14.70;85.40
32366;DHT22;18837;46.832;16.838;2023-04-01T12:05:58;14.90;84.10
32366;DHT22;18837;46.832;16.838;2023-04-01T12:08:49;15.00;85.20
32366;DHT22;18837;46.832;16.838;2023-04-01T12:11:49;15.00;83.50
32366;DHT22;18837;46.832;16.838;2023-04-01T12:16:59;15.00;83.50
32366;DHT22;18837;46.832;16.838;2023-04-01T12:28:06;15.00;83.40
32366;DHT22;18837;46.832;16.838;2023-04-01T12:33:55;14.90;83.70
32366;DHT22;18837;46.832;16.838;2023-04-01T13:07:54;14.90;85.30
32366;DHT22;18837;46.832;16.838;2023-04-01T13:10:43;14.90;85.10
32366;DHT22;18837;46.832;16.838;2023-04-01T13:21:28;14.80;83.90
32366;DHT22;18837;46.832;16.838;2023-04-01T13:32:54;14.70;84.80
32366;DHT22;18837;46.832;16.838;2023-04-01T13:44:18;14.70;84.70
32366;DHT22;18837;46.832;16.838;2023-04-01T14:00:54;14.60;84.10
32366;DHT22;18837;46.832;16.838;2023-04-01T14:45:19;14.60;83.10
32366;DHT22;18837;46.832;16.838;2023-04-01T14:50:25;14.70;82.10
32366;DHT22;18837;46.832;16.838;2023-04-01T14:53:13;14.70;83.90
32366;DHT22;18837;46.832;16.838;2023-04-01T14:56:02;14.70;83.20
32366;DHT22;18837;46.832;16.838;2023-04-01T14:58:44;14.70;83.60
32366;DHT22;18837;46.832;16.838;2023-04-01T15:01:24;14.70;83.00
32366;DHT22;18837;46.832;16.838;2023-04-01T15:24:46;14.70;80.50
32366;DHT22;18837;46.832;16.838;2023-04-01T15:30:44;14.70;80.00
32366;DHT22;18837;46.832;16.838;2023-04-01T15:38:39;14.70;80.40
32366;DHT22;18837;46.832;16.838;2023-04-01T15:43:49;14.60;81.50
32366;DHT22;18837;46.832;16.838;2023-04-01T15:46:44;14.60;81.70
32366;DHT22;18837;46.832;16.838;2023-04-01T15:55:17;14.60;82.00
32366;DHT22;18837;46.832;16.838;2023-04-01T16:02:51;14.60;83.00
32366;DHT22;18837;46.832;16.838;2023-04-01T16:11:25;14.50;83.10
32366;DHT22;18837;46.832;16.838;2023-04-01T16:17:16;14.60;82.90
32366;DHT22;18837;46.832;16.838;2023-04-01T16:32:23;14.40;83.00
32366;DHT22;18837;46.832;16.838;2023-04-01T16:37:41;14.40;83.60
32366;DHT22;18837;46.832;16.838;2023-04-01T16:43:25;14.40;83.30
32366;DHT22;18837;46.832;16.838;2023-04-01T16:49:02;14.30;83.50
32366;DHT22;18837;46.832;16.838;2023-04-01T16:55:23;14.30;84.00
32366;DHT22;18837;46.832;16.838;2023-04-01T17:01:16;14.30;84.50
32366;DHT22;18837;46.832;16.838;2023-04-01T17:03:45;14.20;85.50
32366;DHT22;18837;46.832;16.838;2023-04-01T17:06:18;14.20;85.30
32366;DHT22;18837;46.832;16.838;2023-04-01T17:15:53;14.20;86.00
32366;DHT22;18837;46.832;16.838;2023-04-01T17:18:15;14.10;85.50
32366;DHT22;18837;46.832;16.838;2023-04-01T17:20:54;14.10;84.90
32366;DHT22;18837;46.832;16.838;2023-04-01T17:23:33;14.10;85.70
32366;DHT22;18837;46.832;16.838;2023-04-01T17:35:26;14.00;85.30
32366;DHT22;18837;46.832;16.838;2023-04-01T17:38:13;14.00;86.00
32366;DHT22;18837;46.832;16.838;2023-04-01T17:41:09;13.90;85.00
32366;DHT22;18837;46.832;16.838;2023-04-01T17:43:52;13.90;85.60
32366;DHT22;18837;46.832;16.838;2023-04-01T17:46:27;13.90;85.10
32366;DHT22;18837;46.832;16.838;2023-04-01T17:52:27;13.80;86.30
32366;DHT22;18837;46.832;16.838;2023-04-01T17:55:10;13.80;85.60
32366;DHT22;18837;46.832;16.838;2023-04-01T18:00:26;13.70;86.30
32366;DHT22;18837;46.832;16.838;2023-04-01T18:25:43;13.50;86.20
32366;DHT22;18837;46.832;16.838;2023-04-01T18:31:09;13.50;86.10
32366;DHT22;18837;46.832;16.838;2023-04-01T18:33:41;13.50;86.30
32366;DHT22;18837;46.832;16.838;2023-04-01T18:45:36;13.40;86.40
32366;DHT22;18837;46.832;16.838;2023-04-01T18:51:21;13.40;86.60
32366;DHT22;18837;46.832;16.838;2023-04-01T18:53:57;13.40;87.00
32366;DHT22;18837;46.832;16.838;2023-04-01T18:56:49;13.40;86.70
32366;DHT22;18837;46.832;16.838;2023-04-01T18:59:36;13.40;87.00
32366;DHT22;18837;46.832;16.838;2023-04-01T19:05:34;13.40;86.80
32366;DHT22;18837;46.832;16.838;2023-04-01T19:17:25;13.30;86.80
32366;DHT22;18837;46.832;16.838;2023-04-01T19:25:15;13.30;87.40
32366;DHT22;18837;46.832;16.838;2023-04-01T19:27:53;13.30;87.30
32366;DHT22;18837;46.832;16.838;2023-04-01T19:33:52;13.30;86.70
32366;DHT22;18837;46.832;16.838;2023-04-01T19:36:43;13.30;87.20
32366;DHT22;18837;46.832;16.838;2023-04-01T19:39:37;13.30;86.70
32366;DHT22;18837;46.832;16.838;2023-04-01T19:56:23;13.30;87.10
32366;DHT22;18837;46.832;16.838;2023-04-01T20:02:42;13.30;86.10
32366;DHT22;18837;46.832;16.838;2023-04-01T20:04:52;13.30;86.80
32366;DHT22;18837;46.832;16.838;2023-04-01T20:07:51;13.30;87.00
32366;DHT22;18837;46.832;16.838;2023-04-01T20:11:00;13.30;86.80
32366;DHT22;18837;46.832;16.838;2023-04-01T20:16:07;13.30;87.10
32366;DHT22;18837;46.832;16.838;2023-04-01T20:18:55;13.20;87.10
32366;DHT22;18837;46.832;16.838;2023-04-01T20:21:46;13.30;87.20
32366;DHT22;18837;46.832;16.838;2023-04-01T20:24:53;13.20;87.00
32366;DHT22;18837;46.832;16.838;2023-04-01T20:27:51;13.20;86.90
32366;DHT22;18837;46.832;16.838;2023-04-01T20:35:47;13.20;86.60
32366;DHT22;18837;46.832;16.838;2023-04-01T20:44:48;13.20;87.10
32366;DHT22;18837;46.832;16.838;2023-04-01T20:47:40;13.20;86.80
32366;DHT22;18837;46.832;16.838;2023-04-01T20:52:57;13.20;87.50
32366;DHT22;18837;46.832;16.838;2023-04-01T21:02:25;13.20;87.20
32366;DHT22;18837;46.832;16.838;2023-04-01T21:07:50;13.10;87.20
32366;DHT22;18837;46.832;16.838;2023-04-01T21:25:09;13.10;87.00
32366;DHT22;18837;46.832;16.838;2023-04-01T21:28:05;13.10;87.00
32366;DHT22;18837;46.832;16.838;2023-04-01T21:42:57;13.10;87.60
32366;DHT22;18837;46.832;16.838;2023-04-01T21:48:34;13.00;88.20
32366;DHT22;18837;46.832;16.838;2023-04-01T22:11:29;13.00;88.00
32366;DHT22;18837;46.832;16.838;2023-04-01T22:14:29;13.00;88.40
32366;DHT22;18837;46.832;16.838;2023-04-01T22:16:57;13.00;88.20
32366;DHT22;18837;46.832;16.838;2023-04-01T22:22:29;13.00;88.30
32366;DHT22;18837;46.832;16.838;2023-04-01T22:25:38;13.00;88.60
32366;DHT22;18837;46.832;16.838;2023-04-01T22:30:51;12.90;88.10
32366;DHT22;18837;46.832;16.838;2023-04-01T22:48:20;12.90;88.20
32366;DHT22;18837;46.832;16.838;2023-04-01T22:51:07;12.90;87.80
32366;DHT22;18837;46.832;16.838;2023-04-01T22:56:07;12.80;89.40
32366;DHT22;18837;46.832;16.838;2023-04-01T22:59:08;12.80;88.60
32366;DHT22;18837;46.832;16.838;2023-04-01T23:01:43;12.80;88.10
32366;DHT22;18837;46.832;16.838;2023-04-01T23:04:15;12.80;88.60
32366;DHT22;18837;46.832;16.838;2023-04-01T23:06:50;12.80;88.70
32366;DHT22;18837;46.832;16.838;2023-04-01T23:09:29;12.80;88.10
32366;DHT22;18837;46.832;16.838;2023-04-01T23:12:03;12.80;88.90
32366;DHT22;18837;46.832;16.838;2023-04-01T23:21:06;12.80;88.20
32366;DHT22;18837;46.832;16.838;2023-04-01T23:26:55;12.80;88.40
32366;DHT22;18837;46.832;16.838;2023-04-01T23:29:22;12.80;88.70
32366;DHT22;18837;46.832;16.838;2023-04-01T23:31:57;12.70;88.70
32366;DHT22;18837;46.832;16.838;2023-04-01T23:34:36;12.80;89.20
32366;DHT22;18837;46.832;16.838;2023-04-01T23:37:05;12.70;89.30
32366;DHT22;18837;46.832;16.838;2023-04-01T23:39:42;12.70;88.90
32366;DHT22;18837;46.832;16.838;2023-04-01T23:42:23;12.70;88.20
32366;DHT22;18837;46.832;16.838;2023-04-01T23:44:53;12.70;88.50
32366;DHT22;18837;46.832;16.838;2023-04-01T23:47:25;12.70;89.00
32366;DHT22;18837;46.832;16.838;2023-04-01T23:53:41;12.70;88.60
32366;DHT22;18837;46.832;16.838;2023-04-01T23:56:07;12.70;88.80
